sensor_id;sensor_type;location;lat;lon;timestamp;noise_LAeq;noise_LA_min;noise_LA_max;noise_LA01;noise_LA95
74214;Laerm;62576;55.694;37.494;2024-02-21T00:00:43;58.29;52.01;69.33;;
74214;Laerm;62576;55.694;37.494;2024-02-21T00:03:14;57.90;52.16;66.77;;
74214;Laerm;62576;55.694;37.494;2024-02-21T00:05:45;57.54;52.47;68.55;;
74214;Laerm;62576;55.694;37.494;2024-02-21T00:08:15;57.63;52.98;69.49;;
74214;Laerm;62576;55.694;37.494;2024-02-21T00:10:47;57.20;52.60;73.10;;
74214;Laerm;62576;55.694;37.494;2024-02-21T00:13:17;56.98;51.71;66.13;;
74214;Laerm;62576;55.694;37.494;2024-02-21T00:15:48;59.42;52.59;68.53;;
74214;Laerm;62576;55.694;37.494;2024-02-21T00:18:18;58.50;53.32;66.39;;
74214;Laerm;62576;55.694;37.494;2024-02-21T00:20:50;62.76;54.15;80.11;;
74214;Laerm;62576;55.694;37.494;2024-02-21T00:23:20;60.44;53.76;68.82;;
74214;Laerm;62576;55.694;37.494;2024-02-21T00:25:50;60.23;52.48;71.70;;
74214;Laerm;62576;55.694;37.494;2024-02-21T00:28:20;58.90;52.58;70.29;;
74214;Laerm;62576;55.694;37.494;2024-02-21T00:30:50;55.71;51.95;64.23;;
74214;Laerm;62576;55.694;37.494;2024-02-21T00:33:21;55.53;52.29;65.80;;
74214;Laerm;62576;55.694;37.494;2024-02-21T00:35:53;59.17;52.17;73.28;;
74214;Laerm;62576;55.694;37.494;2024-02-21T00:38:20;57.13;52.51;66.00;;
74214;Laerm;62576;55.694;37.494;2024-02-21T00:40:50;56.57;52.46;64.06;;
74214;Laerm;62576;55.694;37.494;2024-02-21T00:43:20;60.29;54.56;70.90;;
74214;Laerm;62576;55.694;37.494;2024-02-21T00:45:52;59.99;54.54;66.51;;
74214;Laerm;62576;55.694;37.494;2024-02-21T00:48:22;59.71;53.25;68.72;;
74214;Laerm;62576;55.694;37.494;2024-02-21T00:50:54;59.65;53.25;67.33;;
74214;Laerm;62576;55.694;37.494;2024-02-21T00:53:24;66.84;53.67;89.23;;
74214;Laerm;62576;55.694;37.494;2024-02-21T00:55:54;59.61;53.45;70.11;;
74214;Laerm;62576;55.694;37.494;2024-02-21T00:58:25;56.17;52.09;64.44;;
74214;Laerm;62576;55.694;37.494;2024-02-21T01:00:52;56.62;51.87;67.65;;
74214;Laerm;62576;55.694;37.494;2024-02-21T01:03:23;58.42;51.72;66.87;;
74214;Laerm;62576;55.694;37.494;2024-02-21T01:05:54;57.59;51.45;67.65;;
74214;Laerm;62576;55.694;37.494;2024-02-21T01:08:24;61.17;52.14;80.49;;
74214;Laerm;62576;55.694;37.494;2024-02-21T01:10:55;56.36;52.00;65.95;;
74214;Laerm;62576;55.694;37.494;2024-02-21T01:13:25;55.49;50.94;63.94;;
74214;Laerm;62576;55.694;37.494;2024-02-21T01:15:55;57.28;52.11;67.04;;
74214;Laerm;62576;55.694;37.494;2024-02-21T01:18:25;58.69;52.53;68.03;;
74214;Laerm;62576;55.694;37.494;2024-02-21T01:20:57;59.50;51.55;69.13;;
74214;Laerm;62576;55.694;37.494;2024-02-21T01:23:27;59.35;52.64;67.81;;
74214;Laerm;62576;55.694;37.494;2024-02-21T01:25:57;58.43;51.89;65.49;;
74214;Laerm;62576;55.694;37.494;2024-02-21T01:28:27;57.71;52.13;65.68;;
74214;Laerm;62576;55.694;37.494;2024-02-21T01:30:58;57.47;51.90;67.58;;
74214;Laerm;62576;55.694;37.494;2024-02-21T01:33:28;57.83;52.24;68.97;;
74214;Laerm;62576;55.694;37.494;2024-02-21T01:36:05;57.95;51.53;68.17;;
74214;Laerm;62576;55.694;37.494;2024-02-21T01:38:35;58.63;51.62;70.79;;
74214;Laerm;62576;55.694;37.494;2024-02-21T01:41:06;57.16;52.24;73.75;;
74214;Laerm;62576;55.694;37.494;2024-02-21T01:43:36;60.76;52.50;70.22;;
74214;Laerm;62576;55.694;37.494;2024-02-21T01:46:06;60.73;52.21;73.05;;
74214;Laerm;62576;55.694;37.494;2024-02-21T01:48:36;57.49;51.43;66.45;;
74214;Laerm;62576;55.694;37.494;2024-02-21T01:51:09;56.27;51.61;66.56;;
74214;Laerm;62576;55.694;37.494;2024-02-21T01:53:43;56.50;52.19;64.00;;
74214;Laerm;62576;55.694;37.494;2024-02-21T01:56:14;61.49;52.70;74.25;;
74214;Laerm;62576;55.694;37.494;2024-02-21T01:58:45;57.75;52.38;66.40;;
74214;Laerm;62576;55.694;37.494;2024-02-21T02:01:16;63.29;53.03;72.63;;
74214;Laerm;62576;55.694;37.494;2024-02-21T02:03:47;57.76;52.06;67.08;;
74214;Laerm;62576;55.694;37.494;2024-02-21T02:06:18;57.87;51.56;68.13;;
74214;Laerm;62576;55.694;37.494;2024-02-21T02:08:49;58.05;51.87;65.55;;
74214;Laerm;62576;55.694;37.494;2024-02-21T02:11:19;55.29;51.85;71.23;;
74214;Laerm;62576;55.694;37.494;2024-02-21T02:13:50;59.52;53.33;70.79;;
74214;Laerm;62576;55.694;37.494;2024-02-21T02:16:20;58.35;51.86;68.73;;
74214;Laerm;62576;55.694;37.494;2024-02-21T02:18:50;58.97;52.45;68.60;;
74214;Laerm;62576;55.694;37.494;2024-02-21T02:21:28;58.68;52.46;68.22;;
74214;Laerm;62576;55.694;37.494;2024-02-21T02:24:01;59.24;52.21;68.11;;
74214;Laerm;62576;55.694;37.494;2024-02-21T02:26:31;59.18;51.77;69.22;;
74214;Laerm;62576;55.694;37.494;2024-02-21T02:29:01;62.13;54.15;70.05;;
74214;Laerm;62576;55.694;37.494;2024-02-21T02:31:32;58.62;52.61;66.61;;
74214;Laerm;62576;55.694;37.494;2024-02-21T02:34:02;60.91;51.82;70.74;;
74214;Laerm;62576;55.694;37.494;2024-02-21T02:36:32;61.48;52.51;70.46;;
74214;Laerm;62576;55.694;37.494;2024-02-21T02:39:04;58.77;51.80;67.37;;
74214;Laerm;62576;55.694;37.494;2024-02-21T02:41:35;57.81;51.60;69.47;;
74214;Laerm;62576;55.694;37.494;2024-02-21T02:44:05;60.07;53.39;67.83;;
74214;Laerm;62576;55.694;37.494;2024-02-21T02:46:35;59.99;52.79;68.47;;
74214;Laerm;62576;55.694;37.494;2024-02-21T02:49:05;60.33;52.62;68.55;;
74214;Laerm;62576;55.694;37.494;2024-02-21T02:51:33;61.18;54.38;70.47;;
74214;Laerm;62576;55.694;37.494;2024-02-21T02:54:04;61.20;52.70;72.17;;
74214;Laerm;62576;55.694;37.494;2024-02-21T02:56:35;59.46;52.35;66.70;;
74214;Laerm;62576;55.694;37.494;2024-02-21T02:59:05;59.59;52.23;70.30;;
74214;Laerm;62576;55.694;37.494;2024-02-21T03:01:35;59.19;51.90;68.65;;
74214;Laerm;62576;55.694;37.494;2024-02-21T03:04:07;61.57;53.37;70.43;;
74214;Laerm;62576;55.694;37.494;2024-02-21T03:06:37;62.49;53.60;72.76;;
74214;Laerm;62576;55.694;37.494;2024-02-21T03:09:08;62.30;53.47;70.35;;
74214;Laerm;62576;55.694;37.494;2024-02-21T03:11:38;60.48;52.46;69.79;;
74214;Laerm;62576;55.694;37.494;2024-02-21T03:14:09;63.33;54.18;70.63;;
74214;Laerm;62576;55.694;37.494;2024-02-21T03:16:39;63.55;52.42;71.89;;
74214;Laerm;62576;55.694;37.494;2024-02-21T03:19:10;61.81;52.97;71.10;;
74214;Laerm;62576;55.694;37.494;2024-02-21T03:21:40;63.01;53.70;72.30;;
74214;Laerm;62576;55.694;37.494;2024-02-21T03:24:12;64.76;55.23;72.36;;
74214;Laerm;62576;55.694;37.494;2024-02-21T03:26:42;64.01;55.20;70.47;;
74214;Laerm;62576;55.694;37.494;2024-02-21T03:29:12;62.19;53.57;69.60;;
74214;Laerm;62576;55.694;37.494;2024-02-21T03:31:42;63.94;54.90;72.22;;
74214;Laerm;62576;55.694;37.494;2024-02-21T03:34:13;63.78;55.23;71.91;;
74214;Laerm;62576;55.694;37.494;2024-02-21T03:36:43;63.84;53.46;73.05;;
74214;Laerm;62576;55.694;37.494;2024-02-21T03:39:14;65.89;56.33;72.18;;
74214;Laerm;62576;55.694;37.494;2024-02-21T03:41:44;65.37;55.98;72.10;;
74214;Laerm;62576;55.694;37.494;2024-02-21T03:44:14;64.25;54.24;72.76;;
74214;Laerm;62576;55.694;37.494;2024-02-21T03:46:44;64.56;55.26;70.90;;
74214;Laerm;62576;55.694;37.494;2024-02-21T03:49:14;64.01;54.20;72.48;;
74214;Laerm;62576;55.694;37.494;2024-02-21T03:51:42;65.85;54.34;72.28;;
74214;Laerm;62576;55.694;37.494;2024-02-21T03:54:13;65.29;54.95;72.23;;
74214;Laerm;62576;55.694;37.494;2024-02-21T03:56:44;65.67;56.18;72.68;;
74214;Laerm;62576;55.694;37.494;2024-02-21T03:59:16;65.63;55.38;73.42;;
74214;Laerm;62576;55.694;37.494;2024-02-21T04:01:46;66.88;57.03;75.44;;
74214;Laerm;62576;55.694;37.494;2024-02-21T04:04:16;67.02;56.74;72.34;;
74214;Laerm;62576;55.694;37.494;2024-02-21T04:06:47;66.02;55.40;73.07;;
74214;Laerm;62576;55.694;37.494;2024-02-21T04:09:18;66.30;54.91;74.67;;
74214;Laerm;62576;55.694;37.494;2024-02-21T04:11:48;66.43;56.79;73.16;;
74214;Laerm;62576;55.694;37.494;2024-02-21T04:14:19;67.13;53.78;73.63;;
74214;Laerm;62576;55.694;37.494;2024-02-21T04:16:49;67.88;59.93;74.45;;
74214;Laerm;62576;55.694;37.494;2024-02-21T04:19:19;68.39;57.72;73.46;;
74214;Laerm;62576;55.694;37.494;2024-02-21T04:21:49;67.28;56.84;72.73;;
74214;Laerm;62576;55.694;37.494;2024-02-21T04:24:21;66.99;58.50;72.15;;
74214;Laerm;62576;55.694;37.494;2024-02-21T04:26:51;67.24;60.33;72.13;;
74214;Laerm;62576;55.694;37.494;2024-02-21T04:29:22;67.39;59.14;73.24;;
74214;Laerm;62576;55.694;37.494;2024-02-21T04:31:52;68.17;58.67;78.12;;
74214;Laerm;62576;55.694;37.494;2024-02-21T04:34:22;68.17;59.33;72.85;;
74214;Laerm;62576;55.694;37.494;2024-02-21T04:36:52;68.24;60.14;73.75;;
74214;Laerm;62576;55.694;37.494;2024-02-21T04:39:24;68.70;58.27;78.40;;
74214;Laerm;62576;55.694;37.494;2024-02-21T04:41:54;67.74;58.41;75.96;;
74214;Laerm;62576;55.694;37.494;2024-02-21T04:44:24;68.74;57.91;73.98;;
74214;Laerm;62576;55.694;37.494;2024-02-21T04:46:54;68.45;59.29;74.74;;
74214;Laerm;62576;55.694;37.494;2024-02-21T04:49:25;68.47;61.10;73.01;;
74214;Laerm;62576;55.694;37.494;2024-02-21T04:51:52;68.24;59.28;74.85;;
74214;Laerm;62576;55.694;37.494;2024-02-21T04:54:23;67.81;57.20;79.64;;
74214;Laerm;62576;55.694;37.494;2024-02-21T04:56:53;68.62;59.44;74.55;;
74214;Laerm;62576;55.694;37.494;2024-02-21T04:59:24;68.31;59.54;73.65;;
74214;Laerm;62576;55.694;37.494;2024-02-21T05:01:54;68.79;60.16;73.44;;
74214;Laerm;62576;55.694;37.494;2024-02-21T05:04:24;68.28;58.56;73.22;;
74214;Laerm;62576;55.694;37.494;2024-02-21T05:06:54;68.42;60.09;72.56;;
74214;Laerm;62576;55.694;37.494;2024-02-21T05:09:26;68.63;60.18;72.86;;
74214;Laerm;62576;55.694;37.494;2024-02-21T05:11:56;68.16;57.23;73.89;;
74214;Laerm;62576;55.694;37.494;2024-02-21T05:14:27;69.07;59.42;73.62;;
74214;Laerm;62576;55.694;37.494;2024-02-21T05:16:57;67.83;55.63;73.46;;
74214;Laerm;62576;55.694;37.494;2024-02-21T05:19:27;68.38;59.84;72.93;;
74214;Laerm;62576;55.694;37.494;2024-02-21T05:21:59;67.87;57.97;72.39;;
74214;Laerm;62576;55.694;37.494;2024-02-21T05:24:31;68.23;58.81;72.94;;
74214;Laerm;62576;55.694;37.494;2024-02-21T05:27:03;68.20;61.00;79.55;;
74214;Laerm;62576;55.694;37.494;2024-02-21T05:29:34;68.93;60.54;73.53;;
74214;Laerm;62576;55.694;37.494;2024-02-21T05:32:05;68.81;60.16;73.63;;
74214;Laerm;62576;55.694;37.494;2024-02-21T05:34:35;69.18;58.46;73.82;;
74214;Laerm;62576;55.694;37.494;2024-02-21T05:37:05;67.86;58.80;72.87;;
74214;Laerm;62576;55.694;37.494;2024-02-21T05:39:37;68.44;60.66;73.34;;
74214;Laerm;62576;55.694;37.494;2024-02-21T05:42:05;68.39;56.84;74.03;;
74214;Laerm;62576;55.694;37.494;2024-02-21T05:44:35;68.42;58.04;73.48;;
74214;Laerm;62576;55.694;37.494;2024-02-21T05:47:06;69.04;58.95;73.92;;
74214;Laerm;62576;55.694;37.494;2024-02-21T05:49:39;69.63;60.12;74.03;;
74214;Laerm;62576;55.694;37.494;2024-02-21T05:52:06;69.12;58.79;76.07;;
74214;Laerm;62576;55.694;37.494;2024-02-21T05:54:39;69.41;59.84;73.74;;
74214;Laerm;62576;55.694;37.494;2024-02-21T05:57:09;68.99;61.03;73.12;;
74214;Laerm;62576;55.694;37.494;2024-02-21T05:59:40;68.58;59.29;73.27;;
74214;Laerm;62576;55.694;37.494;2024-02-21T06:02:10;69.23;59.26;74.96;;
74214;Laerm;62576;55.694;37.494;2024-02-21T06:04:40;68.87;59.89;73.96;;
74214;Laerm;62576;55.694;37.494;2024-02-21T06:07:11;69.44;59.04;74.06;;
74214;Laerm;62576;55.694;37.494;2024-02-21T06:09:43;68.25;57.23;73.23;;
74214;Laerm;62576;55.694;37.494;2024-02-21T06:12:13;68.91;59.03;74.46;;
74214;Laerm;62576;55.694;37.494;2024-02-21T06:14:40;68.45;57.74;73.75;;
74214;Laerm;62576;55.694;37.494;2024-02-21T06:17:11;68.59;57.07;73.56;;
74214;Laerm;62576;55.694;37.494;2024-02-21T06:19:44;68.80;59.13;73.00;;
74214;Laerm;62576;55.694;37.494;2024-02-21T06:22:16;69.57;58.42;73.72;;
74214;Laerm;62576;55.694;37.494;2024-02-21T06:24:49;68.99;59.50;74.42;;
74214;Laerm;62576;55.694;37.494;2024-02-21T06:27:25;68.64;58.32;74.59;;
74214;Laerm;62576;55.694;37.494;2024-02-21T06:30:01;67.93;57.99;72.83;;
74214;Laerm;62576;55.694;37.494;2024-02-21T06:32:33;68.75;58.57;74.63;;
74214;Laerm;62576;55.694;37.494;2024-02-21T06:35:05;68.75;57.56;72.36;;
74214;Laerm;62576;55.694;37.494;2024-02-21T06:37:36;68.86;57.29;72.62;;
74214;Laerm;62576;55.694;37.494;2024-02-21T06:40:10;68.45;57.63;73.68;;
74214;Laerm;62576;55.694;37.494;2024-02-21T06:42:40;68.76;58.87;72.89;;
74214;Laerm;62576;55.694;37.494;2024-02-21T06:45:10;68.35;56.86;73.47;;
74214;Laerm;62576;55.694;37.494;2024-02-21T06:47:41;69.07;59.80;77.50;;
74214;Laerm;62576;55.694;37.494;2024-02-21T06:50:11;69.18;58.65;72.94;;
74214;Laerm;62576;55.694;37.494;2024-02-21T06:52:41;68.43;57.21;73.04;;
74214;Laerm;62576;55.694;37.494;2024-02-21T06:55:13;68.82;57.32;73.71;;
74214;Laerm;62576;55.694;37.494;2024-02-21T06:57:44;68.67;58.13;81.28;;
74214;Laerm;62576;55.694;37.494;2024-02-21T07:00:15;68.03;57.45;74.80;;
74214;Laerm;62576;55.694;37.494;2024-02-21T07:02:45;68.34;58.34;74.25;;
74214;Laerm;62576;55.694;37.494;2024-02-21T07:05:20;68.14;56.83;73.65;;
74214;Laerm;62576;55.694;37.494;2024-02-21T07:07:51;68.03;58.09;73.07;;
74214;Laerm;62576;55.694;37.494;2024-02-21T07:10:23;68.25;59.87;73.21;;
74214;Laerm;62576;55.694;37.494;2024-02-21T07:12:54;68.88;57.07;73.68;;
74214;Laerm;62576;55.694;37.494;2024-02-21T07:15:31;68.66;58.70;73.85;;
74214;Laerm;62576;55.694;37.494;2024-02-21T07:18:06;68.48;59.23;74.25;;
74214;Laerm;62576;55.694;37.494;2024-02-21T07:20:50;68.35;59.28;72.76;;
74214;Laerm;62576;55.694;37.494;2024-02-21T07:23:55;68.32;59.22;73.56;;
74214;Laerm;62576;55.694;37.494;2024-02-21T07:26:42;67.55;55.57;73.55;;
74214;Laerm;62576;55.694;37.494;2024-02-21T07:29:13;67.92;56.23;72.80;;
74214;Laerm;62576;55.694;37.494;2024-02-21T07:31:50;68.25;51.54;73.25;;
74214;Laerm;62576;55.694;37.494;2024-02-21T07:34:22;68.60;57.74;77.84;;
74214;Laerm;62576;55.694;37.494;2024-02-21T07:36:59;67.78;56.78;76.06;;
74214;Laerm;62576;55.694;37.494;2024-02-21T07:39:35;66.56;57.33;71.44;;
74214;Laerm;62576;55.694;37.494;2024-02-21T07:42:11;68.51;56.11;72.44;;
74214;Laerm;62576;55.694;37.494;2024-02-21T07:44:42;68.28;58.39;72.78;;
74214;Laerm;62576;55.694;37.494;2024-02-21T07:47:13;68.63;56.02;73.75;;
74214;Laerm;62576;55.694;37.494;2024-02-21T07:49:44;67.92;56.87;73.59;;
74214;Laerm;62576;55.694;37.494;2024-02-21T07:52:11;67.60;55.94;73.43;;
74214;Laerm;62576;55.694;37.494;2024-02-21T07:54:42;67.23;55.80;72.41;;
74214;Laerm;62576;55.694;37.494;2024-02-21T07:57:13;68.12;56.29;73.07;;
74214;Laerm;62576;55.694;37.494;2024-02-21T07:59:47;68.47;58.25;75.49;;
74214;Laerm;62576;55.694;37.494;2024-02-21T08:02:17;68.57;56.97;75.58;;
74214;Laerm;62576;55.694;37.494;2024-02-21T08:04:47;68.46;59.24;73.75;;
74214;Laerm;62576;55.694;37.494;2024-02-21T08:07:18;67.30;58.47;73.57;;
74214;Laerm;62576;55.694;37.494;2024-02-21T08:09:48;68.21;57.91;72.72;;
74214;Laerm;62576;55.694;37.494;2024-02-21T08:12:20;68.94;60.28;73.89;;
74214;Laerm;62576;55.694;37.494;2024-02-21T08:14:51;68.90;57.60;73.62;;
74214;Laerm;62576;55.694;37.494;2024-02-21T08:17:22;68.21;60.92;72.16;;
74214;Laerm;62576;55.694;37.494;2024-02-21T08:19:52;67.86;55.76;74.43;;
74214;Laerm;62576;55.694;37.494;2024-02-21T08:22:23;68.08;57.84;72.66;;
74214;Laerm;62576;55.694;37.494;2024-02-21T08:24:56;68.28;57.27;74.27;;
74214;Laerm;62576;55.694;37.494;2024-02-21T08:27:27;68.81;59.46;73.57;;
74214;Laerm;62576;55.694;37.494;2024-02-21T08:29:58;67.99;60.26;72.80;;
74214;Laerm;62576;55.694;37.494;2024-02-21T08:32:29;68.71;58.68;73.68;;
74214;Laerm;62576;55.694;37.494;2024-02-21T08:34:59;68.39;61.82;72.18;;
74214;Laerm;62576;55.694;37.494;2024-02-21T08:37:29;68.50;55.68;73.08;;
74214;Laerm;62576;55.694;37.494;2024-02-21T08:40:00;68.20;59.60;74.28;;
74214;Laerm;62576;55.694;37.494;2024-02-21T08:42:39;67.33;60.39;73.98;;
74214;Laerm;62576;55.694;37.494;2024-02-21T08:45:11;68.71;62.76;74.24;;
74214;Laerm;62576;55.694;37.494;2024-02-21T08:47:42;68.69;61.27;74.02;;
74214;Laerm;62576;55.694;37.494;2024-02-21T08:50:12;68.98;62.50;83.69;;
74214;Laerm;62576;55.694;37.494;2024-02-21T08:52:42;67.96;59.54;72.75;;
74214;Laerm;62576;55.694;37.494;2024-02-21T08:55:13;68.13;59.30;78.72;;
74214;Laerm;62576;55.694;37.494;2024-02-21T08:57:45;68.22;54.70;75.14;;
74214;Laerm;62576;55.694;37.494;2024-02-21T09:00:16;69.62;60.70;77.61;;
74214;Laerm;62576;55.694;37.494;2024-02-21T09:02:49;67.58;58.56;72.47;;
74214;Laerm;62576;55.694;37.494;2024-02-21T09:05:20;68.49;61.59;73.37;;
74214;Laerm;62576;55.694;37.494;2024-02-21T09:07:50;67.72;60.48;74.90;;
74214;Laerm;62576;55.694;37.494;2024-02-21T09:10:20;67.18;56.90;72.39;;
74214;Laerm;62576;55.694;37.494;2024-02-21T09:12:52;67.14;58.75;72.51;;
74214;Laerm;62576;55.694;37.494;2024-02-21T09:15:22;67.78;57.71;73.39;;
74214;Laerm;62576;55.694;37.494;2024-02-21T09:17:53;66.60;56.76;71.60;;
74214;Laerm;62576;55.694;37.494;2024-02-21T09:20:24;67.26;59.72;73.88;;
74214;Laerm;62576;55.694;37.494;2024-02-21T09:22:54;66.59;58.01;72.27;;
74214;Laerm;62576;55.694;37.494;2024-02-21T09:25:24;69.03;49.99;86.09;;
74214;Laerm;62576;55.694;37.494;2024-02-21T09:27:57;67.09;59.30;72.71;;
74214;Laerm;62576;55.694;37.494;2024-02-21T09:30:28;68.26;60.51;73.32;;
74214;Laerm;62576;55.694;37.494;2024-02-21T09:32:59;68.62;59.88;76.00;;
74214;Laerm;62576;55.694;37.494;2024-02-21T09:35:30;68.41;58.41;74.15;;
74214;Laerm;62576;55.694;37.494;2024-02-21T09:38:10;67.35;59.54;71.84;;
74214;Laerm;62576;55.694;37.494;2024-02-21T09:40:43;67.20;58.32;72.99;;
74214;Laerm;62576;55.694;37.494;2024-02-21T09:43:17;67.83;57.86;73.45;;
74214;Laerm;62576;55.694;37.494;2024-02-21T09:45:51;68.43;59.61;74.41;;
74214;Laerm;62576;55.694;37.494;2024-02-21T09:48:38;68.82;61.66;73.65;;
74214;Laerm;62576;55.694;37.494;2024-02-21T09:51:14;68.27;59.38;72.83;;
74214;Laerm;62576;55.694;37.494;2024-02-21T09:53:45;67.85;59.15;72.94;;
74214;Laerm;62576;55.694;37.494;2024-02-21T09:56:17;68.23;53.96;73.79;;
74214;Laerm;62576;55.694;37.494;2024-02-21T09:58:49;67.56;59.64;72.65;;
74214;Laerm;62576;55.694;37.494;2024-02-21T10:01:20;68.45;60.00;75.87;;
74214;Laerm;62576;55.694;37.494;2024-02-21T10:03:50;70.06;62.59;91.63;;
74214;Laerm;62576;55.694;37.494;2024-02-21T10:06:21;67.83;60.51;72.81;;
74214;Laerm;62576;55.694;37.494;2024-02-21T10:08:53;67.99;58.20;76.52;;
74214;Laerm;62576;55.694;37.494;2024-02-21T10:11:24;68.21;61.99;73.28;;
74214;Laerm;62576;55.694;37.494;2024-02-21T10:14:03;68.83;61.02;73.49;;
74214;Laerm;62576;55.694;37.494;2024-02-21T10:16:34;67.73;60.05;72.52;;
74214;Laerm;62576;55.694;37.494;2024-02-21T10:19:05;68.03;56.46;73.24;;
74214;Laerm;62576;55.694;37.494;2024-02-21T10:21:36;67.73;60.98;75.63;;
74214;Laerm;62576;55.694;37.494;2024-02-21T10:24:06;67.12;58.36;76.00;;
74214;Laerm;62576;55.694;37.494;2024-02-21T10:26:37;67.38;58.67;79.80;;
74214;Laerm;62576;55.694;37.494;2024-02-21T10:29:09;68.00;58.35;78.99;;
74214;Laerm;62576;55.694;37.494;2024-02-21T10:31:39;67.40;59.43;76.80;;
74214;Laerm;62576;55.694;37.494;2024-02-21T10:34:09;67.38;59.78;73.48;;
74214;Laerm;62576;55.694;37.494;2024-02-21T10:36:47;68.16;63.04;72.05;;
74214;Laerm;62576;55.694;37.494;2024-02-21T10:39:17;67.87;57.94;74.03;;
74214;Laerm;62576;55.694;37.494;2024-02-21T10:41:48;68.51;61.21;80.94;;
74214;Laerm;62576;55.694;37.494;2024-02-21T10:44:20;68.69;57.58;78.96;;
74214;Laerm;62576;55.694;37.494;2024-02-21T10:46:52;68.12;59.58;72.43;;
74214;Laerm;62576;55.694;37.494;2024-02-21T10:49:23;68.01;59.86;73.67;;
74214;Laerm;62576;55.694;37.494;2024-02-21T10:51:58;67.77;61.20;73.70;;
74214;Laerm;62576;55.694;37.494;2024-02-21T10:54:39;67.69;54.40;73.53;;
74214;Laerm;62576;55.694;37.494;2024-02-21T10:57:15;67.37;59.93;76.39;;
74214;Laerm;62576;55.694;37.494;2024-02-21T10:59:48;68.99;60.32;85.21;;
74214;Laerm;62576;55.694;37.494;2024-02-21T11:02:19;68.60;59.04;73.20;;
74214;Laerm;62576;55.694;37.494;2024-02-21T11:04:50;68.24;60.28;73.16;;
74214;Laerm;62576;55.694;37.494;2024-02-21T11:07:22;67.99;58.37;78.70;;
74214;Laerm;62576;55.694;37.494;2024-02-21T11:09:52;67.95;61.20;80.67;;
74214;Laerm;62576;55.694;37.494;2024-02-21T11:12:23;68.15;59.88;73.56;;
74214;Laerm;62576;55.694;37.494;2024-02-21T11:15:05;68.34;61.34;72.98;;
74214;Laerm;62576;55.694;37.494;2024-02-21T11:17:36;68.27;59.93;73.58;;
74214;Laerm;62576;55.694;37.494;2024-02-21T11:20:13;68.06;55.68;77.44;;
74214;Laerm;62576;55.694;37.494;2024-02-21T11:22:43;67.74;61.47;72.37;;
74214;Laerm;62576;55.694;37.494;2024-02-21T11:25:22;68.14;62.27;73.96;;
74214;Laerm;62576;55.694;37.494;2024-02-21T11:27:59;68.38;60.35;74.81;;
74214;Laerm;62576;55.694;37.494;2024-02-21T11:30:32;68.65;60.59;77.13;;
74214;Laerm;62576;55.694;37.494;2024-02-21T11:33:03;68.32;58.95;73.52;;
74214;Laerm;62576;55.694;37.494;2024-02-21T11:35:36;68.02;60.03;76.91;;
74214;Laerm;62576;55.694;37.494;2024-02-21T11:38:11;67.90;61.96;73.75;;
74214;Laerm;62576;55.694;37.494;2024-02-21T11:40:45;67.42;57.80;72.66;;
74214;Laerm;62576;55.694;37.494;2024-02-21T11:43:16;68.57;59.86;73.21;;
74214;Laerm;62576;55.694;37.494;2024-02-21T11:45:48;67.87;61.01;72.92;;
74214;Laerm;62576;55.694;37.494;2024-02-21T11:48:21;68.24;59.57;76.00;;
74214;Laerm;62576;55.694;37.494;2024-02-21T11:50:55;68.64;63.40;74.04;;
74214;Laerm;62576;55.694;37.494;2024-02-21T11:53:26;68.41;61.05;74.45;;
74214;Laerm;62576;55.694;37.494;2024-02-21T11:55:59;68.55;60.94;75.89;;
74214;Laerm;62576;55.694;37.494;2024-02-21T11:58:29;68.10;61.42;72.15;;
74214;Laerm;62576;55.694;37.494;2024-02-21T12:01:03;67.42;58.93;73.41;;
74214;Laerm;62576;55.694;37.494;2024-02-21T12:03:33;67.53;56.56;78.14;;
74214;Laerm;62576;55.694;37.494;2024-02-21T12:06:06;68.12;56.94;72.97;;
74214;Laerm;62576;55.694;37.494;2024-02-21T12:08:51;67.77;60.77;77.09;;
74214;Laerm;62576;55.694;37.494;2024-02-21T12:11:23;68.57;59.31;73.57;;
74214;Laerm;62576;55.694;37.494;2024-02-21T12:14:00;67.64;61.95;74.93;;
74214;Laerm;62576;55.694;37.494;2024-02-21T12:16:30;67.76;56.92;73.67;;
74214;Laerm;62576;55.694;37.494;2024-02-21T12:19:01;67.69;60.19;77.50;;
74214;Laerm;62576;55.694;37.494;2024-02-21T12:21:33;67.92;61.16;72.82;;
74214;Laerm;62576;55.694;37.494;2024-02-21T12:24:12;67.23;59.91;72.36;;
74214;Laerm;62576;55.694;37.494;2024-02-21T12:26:43;68.21;59.97;80.60;;
74214;Laerm;62576;55.694;37.494;2024-02-21T12:29:13;68.33;60.40;73.61;;
74214;Laerm;62576;55.694;37.494;2024-02-21T12:31:45;67.65;60.50;75.17;;
74214;Laerm;62576;55.694;37.494;2024-02-21T12:34:19;66.79;58.69;72.25;;
74214;Laerm;62576;55.694;37.494;2024-02-21T12:37:06;67.56;58.54;77.40;;
74214;Laerm;62576;55.694;37.494;2024-02-21T12:39:37;67.98;57.63;78.51;;
74214;Laerm;62576;55.694;37.494;2024-02-21T12:42:07;67.36;56.50;72.80;;
74214;Laerm;62576;55.694;37.494;2024-02-21T12:44:38;67.32;59.72;72.27;;
74214;Laerm;62576;55.694;37.494;2024-02-21T12:47:10;67.88;61.09;82.02;;
74214;Laerm;62576;55.694;37.494;2024-02-21T12:49:42;67.94;60.84;72.09;;
74214;Laerm;62576;55.694;37.494;2024-02-21T12:52:09;68.47;58.36;79.14;;
74214;Laerm;62576;55.694;37.494;2024-02-21T12:54:39;67.54;59.70;73.63;;
74214;Laerm;62576;55.694;37.494;2024-02-21T12:57:09;68.08;59.01;74.36;;
74214;Laerm;62576;55.694;37.494;2024-02-21T12:59:40;67.59;61.84;72.27;;
74214;Laerm;62576;55.694;37.494;2024-02-21T13:02:12;67.62;62.18;74.92;;
74214;Laerm;62576;55.694;37.494;2024-02-21T13:04:43;68.75;63.38;72.36;;
74214;Laerm;62576;55.694;37.494;2024-02-21T13:07:14;67.67;59.37;72.64;;
74214;Laerm;62576;55.694;37.494;2024-02-21T13:09:44;67.58;60.60;73.74;;
74214;Laerm;62576;55.694;37.494;2024-02-21T13:12:15;68.77;60.94;76.79;;
74214;Laerm;62576;55.694;37.494;2024-02-21T13:14:45;67.86;61.03;74.55;;
74214;Laerm;62576;55.694;37.494;2024-02-21T13:17:17;68.06;59.95;72.53;;
74214;Laerm;62576;55.694;37.494;2024-02-21T13:19:47;69.05;62.54;73.39;;
74214;Laerm;62576;55.694;37.494;2024-02-21T13:22:17;68.46;57.32;72.86;;
74214;Laerm;62576;55.694;37.494;2024-02-21T13:24:48;68.40;61.39;74.78;;
74214;Laerm;62576;55.694;37.494;2024-02-21T13:27:19;68.15;61.78;72.74;;
74214;Laerm;62576;55.694;37.494;2024-02-21T13:29:49;68.66;61.63;76.58;;
74214;Laerm;62576;55.694;37.494;2024-02-21T13:32:21;68.06;61.90;72.66;;
74214;Laerm;62576;55.694;37.494;2024-02-21T13:34:52;69.25;60.93;85.30;;
74214;Laerm;62576;55.694;37.494;2024-02-21T13:37:23;67.61;57.35;75.71;;
74214;Laerm;62576;55.694;37.494;2024-02-21T13:39:53;68.72;60.93;75.58;;
74214;Laerm;62576;55.694;37.494;2024-02-21T13:42:23;68.09;63.03;72.41;;
74214;Laerm;62576;55.694;37.494;2024-02-21T13:44:56;68.01;61.24;72.24;;
74214;Laerm;62576;55.694;37.494;2024-02-21T13:47:28;68.17;62.41;72.94;;
74214;Laerm;62576;55.694;37.494;2024-02-21T13:49:59;67.43;61.22;72.44;;
74214;Laerm;62576;55.694;37.494;2024-02-21T13:52:27;69.05;62.70;73.53;;
74214;Laerm;62576;55.694;37.494;2024-02-21T13:54:57;68.37;61.40;79.05;;